sensor_id;sensor_type;location;lat;lon;timestamp;P1;durP1;ratioP1;P2;durP2;ratioP2
16667;SDS011;8447;52.630;4.734;2022-12-29T00:00:09;3.33;;;1.10;;
16667;SDS011;8447;52.630;4.734;2022-12-29T00:02:36;1.90;;;0.80;;
16667;SDS011;8447;52.630;4.734;2022-12-29T00:05:02;1.73;;;1.03;;
16667;SDS011;8447;52.630;4.734;2022-12-29T00:07:29;2.30;;;1.20;;
16667;SDS011;8447;52.630;4.734;2022-12-29T00:09:55;4.93;;;1.60;;
16667;SDS011;8447;52.630;4.734;2022-12-29T00:12:23;2.03;;;1.30;;
16667;SDS011;8447;52.630;4.734;2022-12-29T00:14:49;4.77;;;1.43;;
16667;SDS011;8447;52.630;4.734;2022-12-29T00:17:33;2.73;;;1.10;;
16667;SDS011;8447;52.630;4.734;2022-12-29T00:20:00;3.57;;;1.37;;
16667;SDS011;8447;52.630;4.734;2022-12-29T00:22:43;4.73;;;1.30;;
16667;SDS011;8447;52.630;4.734;2022-12-29T00:25:27;4.50;;;1.80;;
16667;SDS011;8447;52.630;4.734;2022-12-29T00:28:13;3.03;;;1.43;;
16667;SDS011;8447;52.630;4.734;2022-12-29T00:30:58;2.73;;;1.03;;
16667;SDS011;8447;52.630;4.734;2022-12-29T00:33:42;4.17;;;1.40;;
16667;SDS011;8447;52.630;4.734;2022-12-29T00:36:27;3.63;;;1.00;;
16667;SDS011;8447;52.630;4.734;2022-12-29T00:38:55;3.77;;;0.90;;
16667;SDS011;8447;52.630;4.734;2022-12-29T00:41:40;5.13;;;1.23;;
16667;SDS011;8447;52.630;4.734;2022-12-29T00:44:25;4.20;;;1.27;;
16667;SDS011;8447;52.630;4.734;2022-12-29T00:46:52;2.87;;;1.47;;
16667;SDS011;8447;52.630;4.734;2022-12-29T00:49:18;3.40;;;1.27;;
16667;SDS011;8447;52.630;4.734;2022-12-29T00:51:56;5.90;;;1.30;;
16667;SDS011;8447;52.630;4.734;2022-12-29T00:54:23;3.07;;;1.00;;
16667;SDS011;8447;52.630;4.734;2022-12-29T00:56:49;3.73;;;1.33;;
16667;SDS011;8447;52.630;4.734;2022-12-29T00:59:16;4.17;;;1.37;;
16667;SDS011;8447;52.630;4.734;2022-12-29T01:01:44;5.17;;;1.67;;
16667;SDS011;8447;52.630;4.734;2022-12-29T01:04:11;4.00;;;1.50;;
16667;SDS011;8447;52.630;4.734;2022-12-29T01:06:38;3.67;;;1.37;;
16667;SDS011;8447;52.630;4.734;2022-12-29T01:09:05;3.20;;;1.50;;
16667;SDS011;8447;52.630;4.734;2022-12-29T01:11:49;3.53;;;1.50;;
16667;SDS011;8447;52.630;4.734;2022-12-29T01:14:16;7.97;;;1.80;;
16667;SDS011;8447;52.630;4.734;2022-12-29T01:16:42;3.93;;;1.53;;
16667;SDS011;8447;52.630;4.734;2022-12-29T01:19:10;4.57;;;1.40;;
16667;SDS011;8447;52.630;4.734;2022-12-29T01:21:37;5.50;;;1.40;;
16667;SDS011;8447;52.630;4.734;2022-12-29T01:24:03;1.67;;;0.90;;
16667;SDS011;8447;52.630;4.734;2022-12-29T01:26:30;1.20;;;0.80;;
16667;SDS011;8447;52.630;4.734;2022-12-29T01:28:56;2.07;;;0.70;;
16667;SDS011;8447;52.630;4.734;2022-12-29T01:31:23;2.97;;;1.13;;
16667;SDS011;8447;52.630;4.734;2022-12-29T01:33:49;4.63;;;0.90;;
16667;SDS011;8447;52.630;4.734;2022-12-29T01:36:17;2.90;;;0.80;;
16667;SDS011;8447;52.630;4.734;2022-12-29T01:38:44;4.60;;;0.90;;
16667;SDS011;8447;52.630;4.734;2022-12-29T01:41:10;2.73;;;0.90;;
16667;SDS011;8447;52.630;4.734;2022-12-29T01:43:38;1.43;;;0.67;;
16667;SDS011;8447;52.630;4.734;2022-12-29T01:46:04;6.80;;;1.10;;
16667;SDS011;8447;52.630;4.734;2022-12-29T01:48:37;2.30;;;0.77;;
16667;SDS011;8447;52.630;4.734;2022-12-29T01:51:04;3.23;;;0.90;;
16667;SDS011;8447;52.630;4.734;2022-12-29T01:53:32;4.97;;;0.87;;
16667;SDS011;8447;52.630;4.734;2022-12-29T01:55:59;6.13;;;1.00;;
16667;SDS011;8447;52.630;4.734;2022-12-29T01:58:27;4.20;;;1.37;;
16667;SDS011;8447;52.630;4.734;2022-12-29T02:00:56;5.00;;;1.10;;
16667;SDS011;8447;52.630;4.734;2022-12-29T02:03:23;4.10;;;1.07;;
16667;SDS011;8447;52.630;4.734;2022-12-29T02:05:52;2.30;;;0.80;;
16667;SDS011;8447;52.630;4.734;2022-12-29T02:08:19;3.67;;;1.00;;
16667;SDS011;8447;52.630;4.734;2022-12-29T02:10:47;8.37;;;2.07;;
16667;SDS011;8447;52.630;4.734;2022-12-29T02:13:14;6.77;;;1.50;;
16667;SDS011;8447;52.630;4.734;2022-12-29T02:15:45;8.77;;;1.83;;
16667;SDS011;8447;52.630;4.734;2022-12-29T02:18:18;8.33;;;1.33;;
16667;SDS011;8447;52.630;4.734;2022-12-29T02:20:59;5.97;;;1.37;;
16667;SDS011;8447;52.630;4.734;2022-12-29T02:23:37;5.97;;;1.63;;
16667;SDS011;8447;52.630;4.734;2022-12-29T02:26:26;5.73;;;1.77;;
16667;SDS011;8447;52.630;4.734;2022-12-29T02:31:46;8.40;;;1.43;;
16667;SDS011;8447;52.630;4.734;2022-12-29T02:34:17;4.90;;;1.53;;
16667;SDS011;8447;52.630;4.734;2022-12-29T02:36:50;8.87;;;1.83;;
16667;SDS011;8447;52.630;4.734;2022-12-29T02:39:21;7.20;;;2.03;;
16667;SDS011;8447;52.630;4.734;2022-12-29T02:41:52;9.30;;;1.80;;
16667;SDS011;8447;52.630;4.734;2022-12-29T02:44:22;5.60;;;1.47;;
16667;SDS011;8447;52.630;4.734;2022-12-29T02:46:53;8.10;;;1.93;;
16667;SDS011;8447;52.630;4.734;2022-12-29T02:49:20;6.50;;;1.83;;
16667;SDS011;8447;52.630;4.734;2022-12-29T02:51:50;7.80;;;2.00;;
16667;SDS011;8447;52.630;4.734;2022-12-29T02:54:17;5.73;;;1.70;;
16667;SDS011;8447;52.630;4.734;2022-12-29T02:57:01;9.37;;;1.83;;
16667;SDS011;8447;52.630;4.734;2022-12-29T02:59:28;5.87;;;1.57;;
16667;SDS011;8447;52.630;4.734;2022-12-29T03:02:04;6.30;;;1.80;;
16667;SDS011;8447;52.630;4.734;2022-12-29T03:04:49;10.67;;;2.00;;
16667;SDS011;8447;52.630;4.734;2022-12-29T03:07:18;8.97;;;1.63;;
16667;SDS011;8447;52.630;4.734;2022-12-29T03:09:48;7.10;;;1.73;;
16667;SDS011;8447;52.630;4.734;2022-12-29T03:12:20;12.20;;;2.50;;
16667;SDS011;8447;52.630;4.734;2022-12-29T03:14:52;11.40;;;1.77;;
16667;SDS011;8447;52.630;4.734;2022-12-29T03:17:43;14.50;;;2.17;;
16667;SDS011;8447;52.630;4.734;2022-12-29T03:20:13;13.23;;;2.30;;
16667;SDS011;8447;52.630;4.734;2022-12-29T03:22:41;11.90;;;2.13;;
16667;SDS011;8447;52.630;4.734;2022-12-29T03:25:10;10.73;;;2.13;;
16667;SDS011;8447;52.630;4.734;2022-12-29T03:27:38;14.33;;;2.07;;
16667;SDS011;8447;52.630;4.734;2022-12-29T03:30:06;13.33;;;2.77;;
16667;SDS011;8447;52.630;4.734;2022-12-29T03:32:35;16.17;;;2.53;;
16667;SDS011;8447;52.630;4.734;2022-12-29T03:35:04;16.57;;;3.80;;
16667;SDS011;8447;52.630;4.734;2022-12-29T03:37:32;13.97;;;3.00;;
16667;SDS011;8447;52.630;4.734;2022-12-29T03:40:00;16.70;;;2.63;;
16667;SDS011;8447;52.630;4.734;2022-12-29T03:42:27;15.90;;;2.70;;
16667;SDS011;8447;52.630;4.734;2022-12-29T03:44:56;16.57;;;3.53;;
16667;SDS011;8447;52.630;4.734;2022-12-29T03:47:23;14.40;;;2.83;;
16667;SDS011;8447;52.630;4.734;2022-12-29T03:49:50;11.73;;;2.43;;
16667;SDS011;8447;52.630;4.734;2022-12-29T03:52:18;11.30;;;2.10;;
16667;SDS011;8447;52.630;4.734;2022-12-29T03:54:44;5.90;;;1.73;;
16667;SDS011;8447;52.630;4.734;2022-12-29T03:57:11;8.40;;;2.00;;
16667;SDS011;8447;52.630;4.734;2022-12-29T03:59:37;21.40;;;4.03;;
16667;SDS011;8447;52.630;4.734;2022-12-29T04:02:03;13.23;;;2.50;;
16667;SDS011;8447;52.630;4.734;2022-12-29T04:04:30;15.87;;;2.67;;
16667;SDS011;8447;52.630;4.734;2022-12-29T04:06:56;19.97;;;3.10;;
16667;SDS011;8447;52.630;4.734;2022-12-29T04:09:24;12.73;;;2.83;;
16667;SDS011;8447;52.630;4.734;2022-12-29T04:11:50;9.73;;;2.03;;
16667;SDS011;8447;52.630;4.734;2022-12-29T04:14:17;10.80;;;2.13;;
16667;SDS011;8447;52.630;4.734;2022-12-29T04:16:43;8.63;;;2.53;;
16667;SDS011;8447;52.630;4.734;2022-12-29T04:19:09;13.53;;;2.23;;
16667;SDS011;8447;52.630;4.734;2022-12-29T04:21:36;9.73;;;2.07;;
16667;SDS011;8447;52.630;4.734;2022-12-29T04:24:02;7.27;;;1.93;;
16667;SDS011;8447;52.630;4.734;2022-12-29T04:26:32;13.50;;;3.00;;
16667;SDS011;8447;52.630;4.734;2022-12-29T04:28:59;7.30;;;1.93;;
16667;SDS011;8447;52.630;4.734;2022-12-29T04:31:25;11.80;;;2.13;;
16667;SDS011;8447;52.630;4.734;2022-12-29T04:33:51;9.67;;;2.37;;
16667;SDS011;8447;52.630;4.734;2022-12-29T04:36:18;9.97;;;2.33;;
16667;SDS011;8447;52.630;4.734;2022-12-29T04:38:44;10.73;;;1.90;;
16667;SDS011;8447;52.630;4.734;2022-12-29T04:41:10;12.20;;;2.60;;
16667;SDS011;8447;52.630;4.734;2022-12-29T04:43:38;6.53;;;2.00;;
16667;SDS011;8447;52.630;4.734;2022-12-29T04:46:05;3.73;;;1.23;;
16667;SDS011;8447;52.630;4.734;2022-12-29T04:48:31;6.27;;;2.03;;
16667;SDS011;8447;52.630;4.734;2022-12-29T04:50:58;11.90;;;2.97;;
16667;SDS011;8447;52.630;4.734;2022-12-29T04:53:24;12.80;;;1.90;;
16667;SDS011;8447;52.630;4.734;2022-12-29T04:55:51;8.90;;;2.20;;
16667;SDS011;8447;52.630;4.734;2022-12-29T04:58:17;13.73;;;2.63;;
16667;SDS011;8447;52.630;4.734;2022-12-29T05:00:45;10.20;;;2.80;;
16667;SDS011;8447;52.630;4.734;2022-12-29T05:03:12;9.67;;;2.53;;
16667;SDS011;8447;52.630;4.734;2022-12-29T05:05:38;20.27;;;3.90;;
16667;SDS011;8447;52.630;4.734;2022-12-29T05:08:04;21.77;;;4.13;;
16667;SDS011;8447;52.630;4.734;2022-12-29T05:10:31;22.37;;;3.93;;
16667;SDS011;8447;52.630;4.734;2022-12-29T05:12:57;16.03;;;3.03;;
16667;SDS011;8447;52.630;4.734;2022-12-29T05:15:24;14.83;;;3.13;;
16667;SDS011;8447;52.630;4.734;2022-12-29T05:17:51;10.80;;;1.53;;
16667;SDS011;8447;52.630;4.734;2022-12-29T05:20:18;23.33;;;3.50;;
16667;SDS011;8447;52.630;4.734;2022-12-29T05:22:44;16.60;;;4.00;;
16667;SDS011;8447;52.630;4.734;2022-12-29T05:25:10;13.43;;;2.83;;
16667;SDS011;8447;52.630;4.734;2022-12-29T05:27:37;10.13;;;1.90;;
16667;SDS011;8447;52.630;4.734;2022-12-29T05:30:03;14.40;;;3.03;;
16667;SDS011;8447;52.630;4.734;2022-12-29T05:32:30;15.10;;;3.83;;
16667;SDS011;8447;52.630;4.734;2022-12-29T05:34:58;18.93;;;3.33;;
16667;SDS011;8447;52.630;4.734;2022-12-29T05:37:24;8.50;;;2.60;;
16667;SDS011;8447;52.630;4.734;2022-12-29T05:39:50;15.63;;;2.83;;
16667;SDS011;8447;52.630;4.734;2022-12-29T05:42:17;15.10;;;2.47;;
16667;SDS011;8447;52.630;4.734;2022-12-29T05:44:43;13.03;;;2.27;;
16667;SDS011;8447;52.630;4.734;2022-12-29T05:47:09;14.33;;;3.17;;
16667;SDS011;8447;52.630;4.734;2022-12-29T05:49:36;11.13;;;1.57;;
16667;SDS011;8447;52.630;4.734;2022-12-29T05:52:04;15.90;;;2.87;;
16667;SDS011;8447;52.630;4.734;2022-12-29T05:54:30;13.00;;;2.50;;
16667;SDS011;8447;52.630;4.734;2022-12-29T05:56:56;16.70;;;2.60;;
16667;SDS011;8447;52.630;4.734;2022-12-29T05:59:23;14.77;;;2.30;;
16667;SDS011;8447;52.630;4.734;2022-12-29T06:01:49;18.70;;;3.87;;
16667;SDS011;8447;52.630;4.734;2022-12-29T06:04:15;13.60;;;2.23;;
16667;SDS011;8447;52.630;4.734;2022-12-29T06:06:42;20.43;;;3.67;;
16667;SDS011;8447;52.630;4.734;2022-12-29T06:09:10;12.27;;;3.27;;
16667;SDS011;8447;52.630;4.734;2022-12-29T06:11:37;15.13;;;3.37;;
16667;SDS011;8447;52.630;4.734;2022-12-29T06:14:03;19.23;;;3.17;;
16667;SDS011;8447;52.630;4.734;2022-12-29T06:16:30;14.67;;;3.10;;
16667;SDS011;8447;52.630;4.734;2022-12-29T06:18:56;8.93;;;1.67;;
16667;SDS011;8447;52.630;4.734;2022-12-29T06:21:22;18.57;;;3.47;;
16667;SDS011;8447;52.630;4.734;2022-12-29T06:23:49;21.67;;;3.63;;
16667;SDS011;8447;52.630;4.734;2022-12-29T06:26:16;19.93;;;3.73;;
16667;SDS011;8447;52.630;4.734;2022-12-29T06:28:43;25.83;;;4.10;;
16667;SDS011;8447;52.630;4.734;2022-12-29T06:31:09;18.30;;;4.03;;
16667;SDS011;8447;52.630;4.734;2022-12-29T06:33:36;14.73;;;3.60;;
16667;SDS011;8447;52.630;4.734;2022-12-29T06:36:02;15.13;;;3.53;;
16667;SDS011;8447;52.630;4.734;2022-12-29T06:38:29;18.20;;;3.47;;
16667;SDS011;8447;52.630;4.734;2022-12-29T06:40:55;16.07;;;3.37;;
16667;SDS011;8447;52.630;4.734;2022-12-29T06:43:23;16.77;;;3.00;;
16667;SDS011;8447;52.630;4.734;2022-12-29T06:45:49;17.03;;;3.57;;
16667;SDS011;8447;52.630;4.734;2022-12-29T06:48:16;11.70;;;2.67;;
16667;SDS011;8447;52.630;4.734;2022-12-29T06:50:42;18.33;;;3.13;;
16667;SDS011;8447;52.630;4.734;2022-12-29T06:53:08;13.93;;;3.83;;
16667;SDS011;8447;52.630;4.734;2022-12-29T06:55:35;13.83;;;2.83;;
16667;SDS011;8447;52.630;4.734;2022-12-29T06:58:01;18.90;;;3.57;;
16667;SDS011;8447;52.630;4.734;2022-12-29T07:00:29;14.90;;;3.53;;
16667;SDS011;8447;52.630;4.734;2022-12-29T07:02:55;14.37;;;2.60;;
16667;SDS011;8447;52.630;4.734;2022-12-29T07:05:23;16.20;;;3.10;;
16667;SDS011;8447;52.630;4.734;2022-12-29T07:07:49;25.07;;;4.60;;
16667;SDS011;8447;52.630;4.734;2022-12-29T07:10:17;21.00;;;3.70;;
16667;SDS011;8447;52.630;4.734;2022-12-29T07:12:43;10.37;;;2.67;;
16667;SDS011;8447;52.630;4.734;2022-12-29T07:15:10;22.23;;;3.87;;
16667;SDS011;8447;52.630;4.734;2022-12-29T07:17:38;12.20;;;3.53;;
16667;SDS011;8447;52.630;4.734;2022-12-29T07:20:05;16.40;;;2.60;;
16667;SDS011;8447;52.630;4.734;2022-12-29T07:22:31;25.03;;;3.40;;
16667;SDS011;8447;52.630;4.734;2022-12-29T07:24:58;10.63;;;3.13;;
16667;SDS011;8447;52.630;4.734;2022-12-29T07:27:24;15.83;;;3.07;;
16667;SDS011;8447;52.630;4.734;2022-12-29T07:29:50;16.80;;;3.10;;
16667;SDS011;8447;52.630;4.734;2022-12-29T07:32:18;16.77;;;3.40;;
16667;SDS011;8447;52.630;4.734;2022-12-29T07:34:45;17.03;;;3.00;;
16667;SDS011;8447;52.630;4.734;2022-12-29T07:37:12;15.37;;;3.13;;
16667;SDS011;8447;52.630;4.734;2022-12-29T07:39:39;24.27;;;4.03;;
16667;SDS011;8447;52.630;4.734;2022-12-29T07:42:06;20.50;;;3.60;;
16667;SDS011;8447;52.630;4.734;2022-12-29T07:44:32;17.37;;;3.40;;
16667;SDS011;8447;52.630;4.734;2022-12-29T07:46:58;20.07;;;3.53;;
16667;SDS011;8447;52.630;4.734;2022-12-29T07:49:25;22.63;;;2.70;;
16667;SDS011;8447;52.630;4.734;2022-12-29T07:51:52;19.07;;;3.43;;
16667;SDS011;8447;52.630;4.734;2022-12-29T07:54:19;20.30;;;5.27;;
16667;SDS011;8447;52.630;4.734;2022-12-29T07:56:45;17.83;;;3.97;;
16667;SDS011;8447;52.630;4.734;2022-12-29T07:59:12;14.83;;;4.37;;
16667;SDS011;8447;52.630;4.734;2022-12-29T08:01:39;14.37;;;3.37;;
16667;SDS011;8447;52.630;4.734;2022-12-29T08:04:05;11.87;;;3.30;;
16667;SDS011;8447;52.630;4.734;2022-12-29T08:06:31;24.90;;;4.57;;
16667;SDS011;8447;52.630;4.734;2022-12-29T08:08:59;21.60;;;4.03;;
16667;SDS011;8447;52.630;4.734;2022-12-29T08:11:26;18.73;;;3.70;;
16667;SDS011;8447;52.630;4.734;2022-12-29T08:13:53;12.67;;;3.00;;
16667;SDS011;8447;52.630;4.734;2022-12-29T08:16:19;22.53;;;5.03;;
16667;SDS011;8447;52.630;4.734;2022-12-29T08:18:46;21.00;;;5.47;;
16667;SDS011;8447;52.630;4.734;2022-12-29T08:21:12;27.47;;;4.97;;
16667;SDS011;8447;52.630;4.734;2022-12-29T08:23:38;21.30;;;4.00;;
16667;SDS011;8447;52.630;4.734;2022-12-29T08:26:06;19.30;;;3.83;;
16667;SDS011;8447;52.630;4.734;2022-12-29T08:28:33;15.07;;;3.00;;
16667;SDS011;8447;52.630;4.734;2022-12-29T08:30:59;15.30;;;3.47;;
16667;SDS011;8447;52.630;4.734;2022-12-29T08:33:26;11.63;;;2.87;;
16667;SDS011;8447;52.630;4.734;2022-12-29T08:35:58;13.73;;;3.17;;
16667;SDS011;8447;52.630;4.734;2022-12-29T08:38:24;16.77;;;4.10;;
16667;SDS011;8447;52.630;4.734;2022-12-29T08:40:51;16.20;;;3.63;;
16667;SDS011;8447;52.630;4.734;2022-12-29T08:43:19;17.80;;;4.37;;
16667;SDS011;8447;52.630;4.734;2022-12-29T08:45:45;15.80;;;3.17;;
16667;SDS011;8447;52.630;4.734;2022-12-29T08:48:12;7.73;;;1.87;;
16667;SDS011;8447;52.630;4.734;2022-12-29T08:50:38;10.43;;;2.97;;
16667;SDS011;8447;52.630;4.734;2022-12-29T08:53:05;15.23;;;3.87;;
16667;SDS011;8447;52.630;4.734;2022-12-29T08:55:31;18.83;;;4.10;;
16667;SDS011;8447;52.630;4.734;2022-12-29T08:57:57;9.87;;;3.00;;
16667;SDS011;8447;52.630;4.734;2022-12-29T09:00:25;17.13;;;3.57;;
16667;SDS011;8447;52.630;4.734;2022-12-29T09:02:51;18.33;;;4.17;;
16667;SDS011;8447;52.630;4.734;2022-12-29T09:05:18;12.37;;;3.20;;
16667;SDS011;8447;52.630;4.734;2022-12-29T09:07:44;19.57;;;3.57;;
16667;SDS011;8447;52.630;4.734;2022-12-29T09:10:10;17.47;;;2.83;;
16667;SDS011;8447;52.630;4.734;2022-12-29T09:12:37;16.27;;;3.57;;
16667;SDS011;8447;52.630;4.734;2022-12-29T09:15:04;23.17;;;4.17;;
16667;SDS011;8447;52.630;4.734;2022-12-29T09:17:32;17.30;;;3.40;;
16667;SDS011;8447;52.630;4.734;2022-12-29T09:20:08;23.20;;;3.77;;
16667;SDS011;8447;52.630;4.734;2022-12-29T09:22:35;18.47;;;3.33;;
16667;SDS011;8447;52.630;4.734;2022-12-29T09:25:01;20.07;;;3.80;;
16667;SDS011;8447;52.630;4.734;2022-12-29T09:27:27;21.93;;;3.83;;
16667;SDS011;8447;52.630;4.734;2022-12-29T09:29:55;29.87;;;5.20;;
16667;SDS011;8447;52.630;4.734;2022-12-29T09:32:21;19.67;;;4.07;;
16667;SDS011;8447;52.630;4.734;2022-12-29T09:34:49;25.33;;;4.80;;
16667;SDS011;8447;52.630;4.734;2022-12-29T09:37:15;16.63;;;4.10;;
16667;SDS011;8447;52.630;4.734;2022-12-29T09:39:42;29.20;;;5.43;;
16667;SDS011;8447;52.630;4.734;2022-12-29T09:42:09;22.23;;;4.73;;
16667;SDS011;8447;52.630;4.734;2022-12-29T09:44:44;29.53;;;4.57;;
16667;SDS011;8447;52.630;4.734;2022-12-29T09:47:12;18.40;;;3.60;;
16667;SDS011;8447;52.630;4.734;2022-12-29T09:49:40;14.93;;;3.13;;
16667;SDS011;8447;52.630;4.734;2022-12-29T09:52:12;17.27;;;3.33;;
16667;SDS011;8447;52.630;4.734;2022-12-29T09:54:41;19.77;;;4.10;;
16667;SDS011;8447;52.630;4.734;2022-12-29T09:57:16;19.47;;;3.20;;
16667;SDS011;8447;52.630;4.734;2022-12-29T09:59:43;19.93;;;2.97;;
16667;SDS011;8447;52.630;4.734;2022-12-29T10:02:22;15.87;;;3.30;;
16667;SDS011;8447;52.630;4.734;2022-12-29T10:04:51;17.27;;;3.13;;
16667;SDS011;8447;52.630;4.734;2022-12-29T10:07:22;13.67;;;2.80;;
16667;SDS011;8447;52.630;4.734;2022-12-29T10:09:51;20.37;;;2.80;;
16667;SDS011;8447;52.630;4.734;2022-12-29T10:12:22;15.80;;;2.53;;
16667;SDS011;8447;52.630;4.734;2022-12-29T10:14:55;14.57;;;2.57;;
16667;SDS011;8447;52.630;4.734;2022-12-29T10:17:25;12.00;;;2.57;;
16667;SDS011;8447;52.630;4.734;2022-12-29T10:19:56;16.20;;;2.13;;
16667;SDS011;8447;52.630;4.734;2022-12-29T10:22:31;10.70;;;2.30;;
16667;SDS011;8447;52.630;4.734;2022-12-29T10:24:59;12.23;;;2.63;;
16667;SDS011;8447;52.630;4.734;2022-12-29T10:27:27;10.47;;;2.47;;
16667;SDS011;8447;52.630;4.734;2022-12-29T10:29:57;15.20;;;2.67;;
16667;SDS011;8447;52.630;4.734;2022-12-29T10:32:27;9.87;;;2.30;;
16667;SDS011;8447;52.630;4.734;2022-12-29T10:34:55;13.93;;;2.57;;
16667;SDS011;8447;52.630;4.734;2022-12-29T10:37:27;13.53;;;2.43;;
16667;SDS011;8447;52.630;4.734;2022-12-29T10:39:57;10.23;;;2.00;;
16667;SDS011;8447;52.630;4.734;2022-12-29T10:42:25;9.83;;;2.20;;
16667;SDS011;8447;52.630;4.734;2022-12-29T10:44:53;8.60;;;2.60;;
16667;SDS011;8447;52.630;4.734;2022-12-29T10:47:20;12.70;;;2.20;;
16667;SDS011;8447;52.630;4.734;2022-12-29T10:49:47;10.83;;;1.77;;
16667;SDS011;8447;52.630;4.734;2022-12-29T10:52:14;11.37;;;2.00;;
16667;SDS011;8447;52.630;4.734;2022-12-29T10:54:42;7.37;;;2.10;;
16667;SDS011;8447;52.630;4.734;2022-12-29T10:57:13;9.90;;;2.03;;
16667;SDS011;8447;52.630;4.734;2022-12-29T10:59:43;10.30;;;2.30;;
16667;SDS011;8447;52.630;4.734;2022-12-29T11:04:55;15.50;;;2.73;;
16667;SDS011;8447;52.630;4.734;2022-12-29T11:07:23;15.10;;;2.90;;
16667;SDS011;8447;52.630;4.734;2022-12-29T11:09:50;7.63;;;2.73;;
16667;SDS011;8447;52.630;4.734;2022-12-29T11:12:21;6.93;;;2.00;;
16667;SDS011;8447;52.630;4.734;2022-12-29T11:14:48;10.37;;;1.93;;
16667;SDS011;8447;52.630;4.734;2022-12-29T11:17:26;9.93;;;2.90;;
16667;SDS011;8447;52.630;4.734;2022-12-29T11:19:52;12.87;;;2.50;;
16667;SDS011;8447;52.630;4.734;2022-12-29T11:22:20;11.20;;;1.63;;
16667;SDS011;8447;52.630;4.734;2022-12-29T11:24:48;6.57;;;1.73;;
16667;SDS011;8447;52.630;4.734;2022-12-29T11:27:15;9.40;;;2.07;;
16667;SDS011;8447;52.630;4.734;2022-12-29T11:29:43;14.27;;;2.57;;
16667;SDS011;8447;52.630;4.734;2022-12-29T11:32:11;10.43;;;2.33;;
16667;SDS011;8447;52.630;4.734;2022-12-29T11:34:37;9.33;;;2.03;;
16667;SDS011;8447;52.630;4.734;2022-12-29T11:37:05;11.07;;;1.97;;
16667;SDS011;8447;52.630;4.734;2022-12-29T11:39:33;7.30;;;2.07;;
16667;SDS011;8447;52.630;4.734;2022-12-29T11:42:00;8.33;;;1.60;;
16667;SDS011;8447;52.630;4.734;2022-12-29T11:44:27;11.20;;;2.23;;
16667;SDS011;8447;52.630;4.734;2022-12-29T11:46:57;10.33;;;2.23;;
16667;SDS011;8447;52.630;4.734;2022-12-29T11:49:24;7.80;;;1.60;;
16667;SDS011;8447;52.630;4.734;2022-12-29T11:51:51;15.23;;;2.47;;
16667;SDS011;8447;52.630;4.734;2022-12-29T11:54:21;12.63;;;2.43;;
16667;SDS011;8447;52.630;4.734;2022-12-29T11:56:48;11.00;;;2.20;;
16667;SDS011;8447;52.630;4.734;2022-12-29T12:02:09;10.73;;;2.10;;
16667;SDS011;8447;52.630;4.734;2022-12-29T12:04:37;13.27;;;3.47;;
16667;SDS011;8447;52.630;4.734;2022-12-29T12:07:15;10.90;;;2.37;;
16667;SDS011;8447;52.630;4.734;2022-12-29T12:09:43;9.53;;;1.50;;
16667;SDS011;8447;52.630;4.734;2022-12-29T12:12:15;10.60;;;1.97;;
16667;SDS011;8447;52.630;4.734;2022-12-29T12:14:50;10.03;;;2.30;;
16667;SDS011;8447;52.630;4.734;2022-12-29T12:17:21;6.13;;;1.50;;
16667;SDS011;8447;52.630;4.734;2022-12-29T12:19:50;8.53;;;1.93;;
16667;SDS011;8447;52.630;4.734;2022-12-29T12:22:21;14.67;;;2.03;;
16667;SDS011;8447;52.630;4.734;2022-12-29T12:24:51;9.17;;;2.40;;
16667;SDS011;8447;52.630;4.734;2022-12-29T12:27:21;11.30;;;2.60;;
16667;SDS011;8447;52.630;4.734;2022-12-29T12:29:50;9.03;;;2.07;;
16667;SDS011;8447;52.630;4.734;2022-12-29T12:32:20;8.70;;;2.00;;
16667;SDS011;8447;52.630;4.734;2022-12-29T12:34:48;7.97;;;1.70;;
16667;SDS011;8447;52.630;4.734;2022-12-29T12:40:02;7.53;;;2.30;;
16667;SDS011;8447;52.630;4.734;2022-12-29T12:42:35;10.43;;;2.00;;
16667;SDS011;8447;52.630;4.734;2022-12-29T12:45:17;10.37;;;2.00;;
16667;SDS011;8447;52.630;4.734;2022-12-29T12:47:53;14.30;;;2.30;;
16667;SDS011;8447;52.630;4.734;2022-12-29T12:50:29;9.93;;;1.70;;
16667;SDS011;8447;52.630;4.734;2022-12-29T12:55:49;13.77;;;2.43;;
16667;SDS011;8447;52.630;4.734;2022-12-29T12:58:20;8.63;;;2.57;;
16667;SDS011;8447;52.630;4.734;2022-12-29T13:00:50;12.13;;;2.23;;
16667;SDS011;8447;52.630;4.734;2022-12-29T13:03:22;10.90;;;2.33;;
16667;SDS011;8447;52.630;4.734;2022-12-29T13:05:57;8.17;;;2.33;;
16667;SDS011;8447;52.630;4.734;2022-12-29T13:08:35;10.67;;;2.17;;
16667;SDS011;8447;52.630;4.734;2022-12-29T13:11:08;10.03;;;2.10;;
16667;SDS011;8447;52.630;4.734;2022-12-29T13:13:48;14.10;;;2.47;;
16667;SDS011;8447;52.630;4.734;2022-12-29T13:16:20;12.73;;;1.87;;
16667;SDS011;8447;52.630;4.734;2022-12-29T13:18:52;9.73;;;2.70;;
16667;SDS011;8447;52.630;4.734;2022-12-29T13:21:24;15.57;;;2.70;;
16667;SDS011;8447;52.630;4.734;2022-12-29T13:23:53;10.73;;;2.03;;
16667;SDS011;8447;52.630;4.734;2022-12-29T13:26:22;9.80;;;2.17;;
16667;SDS011;8447;52.630;4.734;2022-12-29T13:28:52;12.10;;;2.47;;
16667;SDS011;8447;52.630;4.734;2022-12-29T13:31:24;11.67;;;2.33;;
16667;SDS011;8447;52.630;4.734;2022-12-29T13:33:55;6.73;;;1.80;;
16667;SDS011;8447;52.630;4.734;2022-12-29T13:36:24;16.90;;;3.00;;
16667;SDS011;8447;52.630;4.734;2022-12-29T13:38:53;9.70;;;2.17;;
16667;SDS011;8447;52.630;4.734;2022-12-29T13:41:25;9.13;;;2.30;;
16667;SDS011;8447;52.630;4.734;2022-12-29T13:43:53;7.37;;;2.00;;
16667;SDS011;8447;52.630;4.734;2022-12-29T13:46:22;8.60;;;1.93;;
16667;SDS011;8447;52.630;4.734;2022-12-29T13:48:50;9.33;;;2.10;;
16667;SDS011;8447;52.630;4.734;2022-12-29T13:51:18;10.10;;;2.07;;
16667;SDS011;8447;52.630;4.734;2022-12-29T13:53:59;12.97;;;2.17;;
16667;SDS011;8447;52.630;4.734;2022-12-29T13:56:30;11.13;;;1.93;;
16667;SDS011;8447;52.630;4.734;2022-12-29T13:59:02;6.87;;;1.83;;
16667;SDS011;8447;52.630;4.734;2022-12-29T14:01:34;9.33;;;2.13;;
16667;SDS011;8447;52.630;4.734;2022-12-29T14:04:02;11.90;;;2.37;;
16667;SDS011;8447;52.630;4.734;2022-12-29T14:06:30;8.67;;;1.60;;
16667;SDS011;8447;52.630;4.734;2022-12-29T14:08:57;7.50;;;1.90;;
16667;SDS011;8447;52.630;4.734;2022-12-29T14:11:28;11.83;;;2.10;;
16667;SDS011;8447;52.630;4.734;2022-12-29T14:13:56;5.03;;;1.80;;
16667;SDS011;8447;52.630;4.734;2022-12-29T14:16:29;11.00;;;2.10;;
16667;SDS011;8447;52.630;4.734;2022-12-29T14:18:56;8.93;;;1.60;;
16667;SDS011;8447;52.630;4.734;2022-12-29T14:21:31;16.30;;;2.10;;
16667;SDS011;8447;52.630;4.734;2022-12-29T14:24:25;11.30;;;2.03;;
16667;SDS011;8447;52.630;4.734;2022-12-29T14:26:47;10.77;;;2.60;;
16667;SDS011;8447;52.630;4.734;2022-12-29T14:29:41;14.07;;;3.10;;
16667;SDS011;8447;52.630;4.734;2022-12-29T14:32:03;16.20;;;2.60;;
16667;SDS011;8447;52.630;4.734;2022-12-29T14:34:50;14.30;;;2.03;;
16667;SDS011;8447;52.630;4.734;2022-12-29T14:37:25;13.80;;;2.70;;
16667;SDS011;8447;52.630;4.734;2022-12-29T14:40:02;9.73;;;2.17;;
16667;SDS011;8447;52.630;4.734;2022-12-29T14:42:30;11.80;;;2.30;;
16667;SDS011;8447;52.630;4.734;2022-12-29T14:44:58;12.93;;;2.87;;
16667;SDS011;8447;52.630;4.734;2022-12-29T14:47:27;9.50;;;2.27;;
16667;SDS011;8447;52.630;4.734;2022-12-29T14:49:57;4.63;;;1.70;;
16667;SDS011;8447;52.630;4.734;2022-12-29T14:52:30;12.60;;;2.27;;
16667;SDS011;8447;52.630;4.734;2022-12-29T14:54:57;15.93;;;2.50;;
16667;SDS011;8447;52.630;4.734;2022-12-29T14:57:29;9.80;;;2.13;;
16667;SDS011;8447;52.630;4.734;2022-12-29T14:59:58;15.33;;;2.83;;
16667;SDS011;8447;52.630;4.734;2022-12-29T15:02:27;8.43;;;2.40;;
16667;SDS011;8447;52.630;4.734;2022-12-29T15:04:59;17.50;;;2.87;;
16667;SDS011;8447;52.630;4.734;2022-12-29T15:07:26;16.80;;;3.10;;
16667;SDS011;8447;52.630;4.734;2022-12-29T15:09:56;12.37;;;2.20;;
16667;SDS011;8447;52.630;4.734;2022-12-29T15:12:27;10.23;;;2.03;;
16667;SDS011;8447;52.630;4.734;2022-12-29T15:14:56;11.03;;;2.20;;
16667;SDS011;8447;52.630;4.734;2022-12-29T15:17:24;17.30;;;3.00;;